sensor_id;sensor_type;location;lat;lon;timestamp;temperature;humidity
25280;DHT22;13225;47.804;12.116;2023-07-20T00:02:00;18.40;99.90
25280;DHT22;13225;47.804;12.116;2023-07-20T00:04:26;18.30;99.90
25280;DHT22;13225;47.804;12.116;2023-07-20T00:06:51;18.30;99.90
25280;DHT22;13225;47.804;12.116;2023-07-20T00:09:17;18.30;99.90
25280;DHT22;13225;47.804;12.116;2023-07-20T00:11:49;18.20;99.90
25280;DHT22;13225;47.804;12.116;2023-07-20T00:14:16;18.10;99.90
25280;DHT22;13225;47.804;12.116;2023-07-20T00:16:42;18.10;99.90
25280;DHT22;13225;47.804;12.116;2023-07-20T00:19:07;18.10;99.90
25280;DHT22;13225;47.804;12.116;2023-07-20T00:21:33;18.10;99.90
25280;DHT22;13225;47.804;12.116;2023-07-20T00:23:59;18.20;99.90
25280;DHT22;13225;47.804;12.116;2023-07-20T00:26:24;18.20;99.90
25280;DHT22;13225;47.804;12.116;2023-07-20T00:28:50;18.20;99.90
25280;DHT22;13225;47.804;12.116;2023-07-20T00:31:17;18.20;99.90
25280;DHT22;13225;47.804;12.116;2023-07-20T00:33:42;18.20;99.90
25280;DHT22;13225;47.804;12.116;2023-07-20T00:36:08;18.20;99.90
25280;DHT22;13225;47.804;12.116;2023-07-20T00:38:33;18.10;99.90
25280;DHT22;13225;47.804;12.116;2023-07-20T00:40:59;18.10;99.90
25280;DHT22;13225;47.804;12.116;2023-07-20T00:43:24;18.10;99.90
25280;DHT22;13225;47.804;12.116;2023-07-20T00:45:50;17.90;99.90
25280;DHT22;13225;47.804;12.116;2023-07-20T00:48:16;17.80;99.90
25280;DHT22;13225;47.804;12.116;2023-07-20T00:50:42;17.70;99.90
25280;DHT22;13225;47.804;12.116;2023-07-20T00:53:08;17.70;99.90
25280;DHT22;13225;47.804;12.116;2023-07-20T00:55:34;17.60;99.90
25280;DHT22;13225;47.804;12.116;2023-07-20T00:58:00;17.50;99.90
25280;DHT22;13225;47.804;12.116;2023-07-20T01:00:25;17.50;99.90
25280;DHT22;13225;47.804;12.116;2023-07-20T01:02:51;17.50;99.90
25280;DHT22;13225;47.804;12.116;2023-07-20T01:05:17;17.50;99.90
25280;DHT22;13225;47.804;12.116;2023-07-20T01:07:58;17.60;99.90
25280;DHT22;13225;47.804;12.116;2023-07-20T01:10:41;17.70;99.90
25280;DHT22;13225;47.804;12.116;2023-07-20T01:13:10;17.70;99.90
25280;DHT22;13225;47.804;12.116;2023-07-20T01:15:36;17.60;99.90
25280;DHT22;13225;47.804;12.116;2023-07-20T01:18:02;17.60;99.90
25280;DHT22;13225;47.804;12.116;2023-07-20T01:20:31;17.60;99.90
25280;DHT22;13225;47.804;12.116;2023-07-20T01:26:08;17.70;99.90
25280;DHT22;13225;47.804;12.116;2023-07-20T01:31:39;17.60;99.90
25280;DHT22;13225;47.804;12.116;2023-07-20T01:34:09;17.60;99.90
25280;DHT22;13225;47.804;12.116;2023-07-20T01:36:37;17.50;99.90
25280;DHT22;13225;47.804;12.116;2023-07-20T01:39:04;17.50;99.90
25280;DHT22;13225;47.804;12.116;2023-07-20T01:41:30;17.60;99.90
25280;DHT22;13225;47.804;12.116;2023-07-20T01:43:59;17.60;99.90
25280;DHT22;13225;47.804;12.116;2023-07-20T01:46:25;17.50;99.90
25280;DHT22;13225;47.804;12.116;2023-07-20T01:48:50;17.40;99.90
25280;DHT22;13225;47.804;12.116;2023-07-20T01:51:16;17.40;99.90
25280;DHT22;13225;47.804;12.116;2023-07-20T01:53:43;17.40;99.90
25280;DHT22;13225;47.804;12.116;2023-07-20T01:56:08;17.40;99.90
25280;DHT22;13225;47.804;12.116;2023-07-20T01:58:34;17.40;99.90
25280;DHT22;13225;47.804;12.116;2023-07-20T02:01:00;17.40;99.90
25280;DHT22;13225;47.804;12.116;2023-07-20T02:03:27;17.40;99.90
25280;DHT22;13225;47.804;12.116;2023-07-20T02:05:52;17.40;99.90
25280;DHT22;13225;47.804;12.116;2023-07-20T02:08:18;17.40;99.90
25280;DHT22;13225;47.804;12.116;2023-07-20T02:10:47;17.40;99.90
25280;DHT22;13225;47.804;12.116;2023-07-20T02:13:13;17.30;99.90
25280;DHT22;13225;47.804;12.116;2023-07-20T02:15:39;17.40;99.90
25280;DHT22;13225;47.804;12.116;2023-07-20T02:18:05;17.40;99.90
25280;DHT22;13225;47.804;12.116;2023-07-20T02:20:31;17.40;99.90
25280;DHT22;13225;47.804;12.116;2023-07-20T02:22:57;17.50;99.90
25280;DHT22;13225;47.804;12.116;2023-07-20T02:25:22;17.40;99.90
25280;DHT22;13225;47.804;12.116;2023-07-20T02:27:48;17.50;99.90
25280;DHT22;13225;47.804;12.116;2023-07-20T02:30:13;17.50;99.90
25280;DHT22;13225;47.804;12.116;2023-07-20T02:32:39;17.50;99.90
25280;DHT22;13225;47.804;12.116;2023-07-20T02:35:05;17.60;99.90
25280;DHT22;13225;47.804;12.116;2023-07-20T02:37:31;17.60;99.90
25280;DHT22;13225;47.804;12.116;2023-07-20T02:39:57;17.60;99.90
25280;DHT22;13225;47.804;12.116;2023-07-20T02:42:23;17.60;99.90
25280;DHT22;13225;47.804;12.116;2023-07-20T02:44:51;17.60;99.90
25280;DHT22;13225;47.804;12.116;2023-07-20T02:47:17;17.60;99.90
25280;DHT22;13225;47.804;12.116;2023-07-20T02:49:42;17.60;99.90
25280;DHT22;13225;47.804;12.116;2023-07-20T02:52:09;17.70;99.90
25280;DHT22;13225;47.804;12.116;2023-07-20T02:54:34;17.60;99.90
25280;DHT22;13225;47.804;12.116;2023-07-20T02:57:00;17.60;99.90
25280;DHT22;13225;47.804;12.116;2023-07-20T02:59:26;17.70;99.90
25280;DHT22;13225;47.804;12.116;2023-07-20T03:01:52;17.70;99.90
25280;DHT22;13225;47.804;12.116;2023-07-20T03:04:18;17.70;99.90
25280;DHT22;13225;47.804;12.116;2023-07-20T03:06:43;17.60;99.90
25280;DHT22;13225;47.804;12.116;2023-07-20T03:09:09;17.60;99.90
25280;DHT22;13225;47.804;12.116;2023-07-20T03:11:35;17.60;99.90
25280;DHT22;13225;47.804;12.116;2023-07-20T03:14:00;17.60;99.90
25280;DHT22;13225;47.804;12.116;2023-07-20T03:16:26;17.60;99.90
25280;DHT22;13225;47.804;12.116;2023-07-20T03:18:52;17.60;99.90
25280;DHT22;13225;47.804;12.116;2023-07-20T03:21:17;17.50;99.90
25280;DHT22;13225;47.804;12.116;2023-07-20T03:23:43;17.50;99.90
25280;DHT22;13225;47.804;12.116;2023-07-20T03:26:09;17.50;99.90
25280;DHT22;13225;47.804;12.116;2023-07-20T03:28:38;17.50;99.90
25280;DHT22;13225;47.804;12.116;2023-07-20T03:31:04;17.40;99.90
25280;DHT22;13225;47.804;12.116;2023-07-20T03:33:30;17.50;99.90
25280;DHT22;13225;47.804;12.116;2023-07-20T03:35:57;17.40;99.90
25280;DHT22;13225;47.804;12.116;2023-07-20T03:38:25;17.40;99.90
25280;DHT22;13225;47.804;12.116;2023-07-20T03:40:58;17.40;99.90
25280;DHT22;13225;47.804;12.116;2023-07-20T03:43:25;17.40;99.90
25280;DHT22;13225;47.804;12.116;2023-07-20T03:45:51;17.50;99.90
25280;DHT22;13225;47.804;12.116;2023-07-20T03:48:21;17.40;99.90
25280;DHT22;13225;47.804;12.116;2023-07-20T03:50:51;17.40;99.90
25280;DHT22;13225;47.804;12.116;2023-07-20T03:53:17;17.40;99.90
25280;DHT22;13225;47.804;12.116;2023-07-20T03:55:47;17.40;99.90
25280;DHT22;13225;47.804;12.116;2023-07-20T03:58:14;17.40;99.90
25280;DHT22;13225;47.804;12.116;2023-07-20T04:00:40;17.40;99.90
25280;DHT22;13225;47.804;12.116;2023-07-20T04:03:08;17.40;99.90
25280;DHT22;13225;47.804;12.116;2023-07-20T04:05:33;17.40;99.90
25280;DHT22;13225;47.804;12.116;2023-07-20T04:07:59;17.40;99.90
25280;DHT22;13225;47.804;12.116;2023-07-20T04:10:25;17.30;99.90
25280;DHT22;13225;47.804;12.116;2023-07-20T04:12:50;17.30;99.90
25280;DHT22;13225;47.804;12.116;2023-07-20T04:15:16;17.40;99.90
25280;DHT22;13225;47.804;12.116;2023-07-20T04:17:41;17.30;99.90
25280;DHT22;13225;47.804;12.116;2023-07-20T04:20:08;17.40;99.90
25280;DHT22;13225;47.804;12.116;2023-07-20T04:22:34;17.30;99.90
25280;DHT22;13225;47.804;12.116;2023-07-20T04:24:59;17.40;99.90
25280;DHT22;13225;47.804;12.116;2023-07-20T04:27:25;17.40;99.90
25280;DHT22;13225;47.804;12.116;2023-07-20T04:29:51;17.40;99.90
25280;DHT22;13225;47.804;12.116;2023-07-20T04:32:17;17.40;99.90
25280;DHT22;13225;47.804;12.116;2023-07-20T04:34:42;17.50;99.90
25280;DHT22;13225;47.804;12.116;2023-07-20T04:37:08;17.50;99.90
25280;DHT22;13225;47.804;12.116;2023-07-20T04:39:34;17.60;99.90
25280;DHT22;13225;47.804;12.116;2023-07-20T04:41:59;17.60;99.90
25280;DHT22;13225;47.804;12.116;2023-07-20T04:44:25;17.60;99.90
25280;DHT22;13225;47.804;12.116;2023-07-20T04:46:51;17.70;99.90
25280;DHT22;13225;47.804;12.116;2023-07-20T04:49:16;17.70;99.90
25280;DHT22;13225;47.804;12.116;2023-07-20T04:51:42;17.70;99.90
25280;DHT22;13225;47.804;12.116;2023-07-20T04:54:07;17.70;99.90
25280;DHT22;13225;47.804;12.116;2023-07-20T04:56:33;17.80;99.90
25280;DHT22;13225;47.804;12.116;2023-07-20T04:58:59;17.80;99.90
25280;DHT22;13225;47.804;12.116;2023-07-20T05:01:24;17.70;99.90
25280;DHT22;13225;47.804;12.116;2023-07-20T05:03:52;17.70;99.90
25280;DHT22;13225;47.804;12.116;2023-07-20T05:06:17;17.80;99.90
25280;DHT22;13225;47.804;12.116;2023-07-20T05:08:43;17.70;99.90
25280;DHT22;13225;47.804;12.116;2023-07-20T05:11:09;17.70;99.90
25280;DHT22;13225;47.804;12.116;2023-07-20T05:13:35;17.70;99.90
25280;DHT22;13225;47.804;12.116;2023-07-20T05:16:01;17.60;99.90
25280;DHT22;13225;47.804;12.116;2023-07-20T05:18:27;17.70;99.90
25280;DHT22;13225;47.804;12.116;2023-07-20T05:20:52;17.60;99.90
25280;DHT22;13225;47.804;12.116;2023-07-20T05:23:20;17.70;99.90
25280;DHT22;13225;47.804;12.116;2023-07-20T05:25:46;17.70;99.90
25280;DHT22;13225;47.804;12.116;2023-07-20T05:28:12;17.60;99.90
25280;DHT22;13225;47.804;12.116;2023-07-20T05:30:38;17.50;99.90
25280;DHT22;13225;47.804;12.116;2023-07-20T05:33:03;17.40;99.90
25280;DHT22;13225;47.804;12.116;2023-07-20T05:35:29;17.40;99.90
25280;DHT22;13225;47.804;12.116;2023-07-20T05:37:54;17.40;99.90
25280;DHT22;13225;47.804;12.116;2023-07-20T05:40:20;17.40;99.90
25280;DHT22;13225;47.804;12.116;2023-07-20T05:42:47;17.40;99.90
25280;DHT22;13225;47.804;12.116;2023-07-20T05:45:17;17.40;99.90
25280;DHT22;13225;47.804;12.116;2023-07-20T05:47:43;17.30;99.90
25280;DHT22;13225;47.804;12.116;2023-07-20T05:50:10;17.20;99.90
25280;DHT22;13225;47.804;12.116;2023-07-20T05:52:36;17.00;99.90
25280;DHT22;13225;47.804;12.116;2023-07-20T05:55:01;16.90;99.90
25280;DHT22;13225;47.804;12.116;2023-07-20T05:57:28;16.80;99.90
25280;DHT22;13225;47.804;12.116;2023-07-20T05:59:54;16.80;99.90
25280;DHT22;13225;47.804;12.116;2023-07-20T06:02:19;16.70;99.90
25280;DHT22;13225;47.804;12.116;2023-07-20T06:04:45;16.70;99.90
25280;DHT22;13225;47.804;12.116;2023-07-20T06:07:10;16.70;99.90
25280;DHT22;13225;47.804;12.116;2023-07-20T06:09:36;16.60;99.90
25280;DHT22;13225;47.804;12.116;2023-07-20T06:12:02;16.60;99.90
25280;DHT22;13225;47.804;12.116;2023-07-20T06:14:27;16.60;99.90
25280;DHT22;13225;47.804;12.116;2023-07-20T06:16:53;16.80;99.90
25280;DHT22;13225;47.804;12.116;2023-07-20T06:19:18;16.70;99.90
25280;DHT22;13225;47.804;12.116;2023-07-20T06:21:44;16.70;99.90
25280;DHT22;13225;47.804;12.116;2023-07-20T06:24:10;16.80;99.90
25280;DHT22;13225;47.804;12.116;2023-07-20T06:26:35;16.90;99.90
25280;DHT22;13225;47.804;12.116;2023-07-20T06:29:05;17.00;99.90
25280;DHT22;13225;47.804;12.116;2023-07-20T06:31:32;17.00;99.90
25280;DHT22;13225;47.804;12.116;2023-07-20T06:33:58;17.10;99.90
25280;DHT22;13225;47.804;12.116;2023-07-20T06:36:23;17.10;99.90
25280;DHT22;13225;47.804;12.116;2023-07-20T06:38:49;17.20;99.90
25280;DHT22;13225;47.804;12.116;2023-07-20T06:41:14;17.20;99.90
25280;DHT22;13225;47.804;12.116;2023-07-20T06:43:40;17.30;99.90
25280;DHT22;13225;47.804;12.116;2023-07-20T06:46:05;17.20;99.90
25280;DHT22;13225;47.804;12.116;2023-07-20T06:48:31;17.30;99.90
25280;DHT22;13225;47.804;12.116;2023-07-20T06:50:56;17.30;99.90
25280;DHT22;13225;47.804;12.116;2023-07-20T06:53:22;17.40;99.90
25280;DHT22;13225;47.804;12.116;2023-07-20T06:55:48;17.50;99.90
25280;DHT22;13225;47.804;12.116;2023-07-20T06:58:13;17.50;99.90
25280;DHT22;13225;47.804;12.116;2023-07-20T07:00:39;17.70;99.90
25280;DHT22;13225;47.804;12.116;2023-07-20T07:03:05;17.70;99.90
25280;DHT22;13225;47.804;12.116;2023-07-20T07:05:30;17.90;99.90
25280;DHT22;13225;47.804;12.116;2023-07-20T07:07:56;18.00;99.90
25280;DHT22;13225;47.804;12.116;2023-07-20T07:10:21;18.10;99.90
25280;DHT22;13225;47.804;12.116;2023-07-20T07:12:47;18.20;99.90
25280;DHT22;13225;47.804;12.116;2023-07-20T07:15:13;18.30;99.90
25280;DHT22;13225;47.804;12.116;2023-07-20T07:17:38;18.20;99.90
25280;DHT22;13225;47.804;12.116;2023-07-20T07:20:05;18.40;99.90
25280;DHT22;13225;47.804;12.116;2023-07-20T07:22:30;18.30;99.90
25280;DHT22;13225;47.804;12.116;2023-07-20T07:24:56;18.30;99.90
25280;DHT22;13225;47.804;12.116;2023-07-20T07:27:21;18.40;99.90
25280;DHT22;13225;47.804;12.116;2023-07-20T07:29:47;18.60;99.90
25280;DHT22;13225;47.804;12.116;2023-07-20T07:32:15;18.80;99.90
25280;DHT22;13225;47.804;12.116;2023-07-20T07:34:40;18.90;99.90
25280;DHT22;13225;47.804;12.116;2023-07-20T07:37:06;18.90;99.90
25280;DHT22;13225;47.804;12.116;2023-07-20T07:39:31;18.90;99.90
25280;DHT22;13225;47.804;12.116;2023-07-20T07:41:57;19.00;99.90
25280;DHT22;13225;47.804;12.116;2023-07-20T07:44:23;19.10;99.90
25280;DHT22;13225;47.804;12.116;2023-07-20T07:46:49;19.20;99.90
25280;DHT22;13225;47.804;12.116;2023-07-20T07:49:15;19.20;99.90
25280;DHT22;13225;47.804;12.116;2023-07-20T07:51:41;19.20;99.90
25280;DHT22;13225;47.804;12.116;2023-07-20T07:54:06;19.40;99.90
25280;DHT22;13225;47.804;12.116;2023-07-20T07:56:32;19.60;99.90
25280;DHT22;13225;47.804;12.116;2023-07-20T07:58:58;19.50;99.90
25280;DHT22;13225;47.804;12.116;2023-07-20T08:01:23;19.50;99.90
25280;DHT22;13225;47.804;12.116;2023-07-20T08:03:49;19.60;99.90
25280;DHT22;13225;47.804;12.116;2023-07-20T08:06:15;19.70;99.90
25280;DHT22;13225;47.804;12.116;2023-07-20T08:08:40;19.80;99.90
25280;DHT22;13225;47.804;12.116;2023-07-20T08:11:06;19.80;99.90
25280;DHT22;13225;47.804;12.116;2023-07-20T08:13:32;19.80;99.90
25280;DHT22;13225;47.804;12.116;2023-07-20T08:15:58;19.90;99.90
25280;DHT22;13225;47.804;12.116;2023-07-20T08:18:24;20.10;99.90
25280;DHT22;13225;47.804;12.116;2023-07-20T08:20:49;20.50;99.90
25280;DHT22;13225;47.804;12.116;2023-07-20T08:23:15;21.00;99.90
25280;DHT22;13225;47.804;12.116;2023-07-20T08:25:41;20.80;99.90
25280;DHT22;13225;47.804;12.116;2023-07-20T08:28:18;20.80;99.90
25280;DHT22;13225;47.804;12.116;2023-07-20T08:30:48;21.00;99.90
25280;DHT22;13225;47.804;12.116;2023-07-20T08:33:15;21.30;99.90
25280;DHT22;13225;47.804;12.116;2023-07-20T08:35:41;21.20;99.90
25280;DHT22;13225;47.804;12.116;2023-07-20T08:38:08;21.60;99.90
25280;DHT22;13225;47.804;12.116;2023-07-20T08:40:38;21.80;99.90
25280;DHT22;13225;47.804;12.116;2023-07-20T08:43:04;21.80;99.90
25280;DHT22;13225;47.804;12.116;2023-07-20T08:45:33;21.50;99.90
25280;DHT22;13225;47.804;12.116;2023-07-20T08:48:00;21.50;99.90
25280;DHT22;13225;47.804;12.116;2023-07-20T08:50:30;21.70;99.90
25280;DHT22;13225;47.804;12.116;2023-07-20T08:52:58;22.00;99.90
25280;DHT22;13225;47.804;12.116;2023-07-20T08:55:24;22.10;99.90
25280;DHT22;13225;47.804;12.116;2023-07-20T08:57:54;22.00;99.90
25280;DHT22;13225;47.804;12.116;2023-07-20T09:00:20;21.90;99.90
25280;DHT22;13225;47.804;12.116;2023-07-20T09:02:49;21.60;99.90
25280;DHT22;13225;47.804;12.116;2023-07-20T09:05:16;21.60;99.90
25280;DHT22;13225;47.804;12.116;2023-07-20T09:07:41;22.10;99.90
25280;DHT22;13225;47.804;12.116;2023-07-20T09:10:07;22.60;99.90
25280;DHT22;13225;47.804;12.116;2023-07-20T09:12:40;22.60;99.90
25280;DHT22;13225;47.804;12.116;2023-07-20T09:15:06;22.50;99.90
25280;DHT22;13225;47.804;12.116;2023-07-20T09:17:32;22.30;99.90
25280;DHT22;13225;47.804;12.116;2023-07-20T09:19:58;22.20;99.90
25280;DHT22;13225;47.804;12.116;2023-07-20T09:22:30;22.20;99.90
25280;DHT22;13225;47.804;12.116;2023-07-20T09:24:57;22.30;99.90
25280;DHT22;13225;47.804;12.116;2023-07-20T09:27:34;22.90;99.90
25280;DHT22;13225;47.804;12.116;2023-07-20T09:30:01;23.10;99.90
25280;DHT22;13225;47.804;12.116;2023-07-20T09:32:27;22.90;99.90
25280;DHT22;13225;47.804;12.116;2023-07-20T09:34:52;22.40;99.90
25280;DHT22;13225;47.804;12.116;2023-07-20T09:37:22;22.20;99.90
25280;DHT22;13225;47.804;12.116;2023-07-20T09:39:53;22.00;99.90
25280;DHT22;13225;47.804;12.116;2023-07-20T09:42:19;22.00;99.90
25280;DHT22;13225;47.804;12.116;2023-07-20T09:44:46;22.10;99.90
25280;DHT22;13225;47.804;12.116;2023-07-20T09:47:12;22.10;99.90
25280;DHT22;13225;47.804;12.116;2023-07-20T09:49:41;21.80;99.90
25280;DHT22;13225;47.804;12.116;2023-07-20T09:52:08;22.10;99.90
25280;DHT22;13225;47.804;12.116;2023-07-20T09:54:36;22.20;99.90
25280;DHT22;13225;47.804;12.116;2023-07-20T09:57:02;22.30;99.90
25280;DHT22;13225;47.804;12.116;2023-07-20T09:59:28;22.30;99.90
25280;DHT22;13225;47.804;12.116;2023-07-20T10:01:57;22.40;99.90
25280;DHT22;13225;47.804;12.116;2023-07-20T10:04:24;22.20;99.90
25280;DHT22;13225;47.804;12.116;2023-07-20T10:06:52;22.40;99.90
25280;DHT22;13225;47.804;12.116;2023-07-20T10:09:21;22.50;99.90
25280;DHT22;13225;47.804;12.116;2023-07-20T10:11:50;22.60;99.90
25280;DHT22;13225;47.804;12.116;2023-07-20T10:14:19;22.50;99.90
25280;DHT22;13225;47.804;12.116;2023-07-20T10:16:56;22.30;99.90
25280;DHT22;13225;47.804;12.116;2023-07-20T10:19:27;22.20;99.90
25280;DHT22;13225;47.804;12.116;2023-07-20T10:22:03;22.50;99.90
25280;DHT22;13225;47.804;12.116;2023-07-20T10:24:31;22.50;99.90
25280;DHT22;13225;47.804;12.116;2023-07-20T10:26:58;22.50;99.90
25280;DHT22;13225;47.804;12.116;2023-07-20T10:29:24;22.70;99.90
25280;DHT22;13225;47.804;12.116;2023-07-20T10:31:50;22.70;99.90
25280;DHT22;13225;47.804;12.116;2023-07-20T10:34:16;22.60;99.90
25280;DHT22;13225;47.804;12.116;2023-07-20T10:36:46;23.20;99.90
25280;DHT22;13225;47.804;12.116;2023-07-20T10:39:27;23.30;99.90
25280;DHT22;13225;47.804;12.116;2023-07-20T10:42:07;23.50;99.90
25280;DHT22;13225;47.804;12.116;2023-07-20T10:44:33;23.30;99.90
25280;DHT22;13225;47.804;12.116;2023-07-20T10:47:03;23.70;99.90
25280;DHT22;13225;47.804;12.116;2023-07-20T10:49:34;23.70;99.90
25280;DHT22;13225;47.804;12.116;2023-07-20T10:52:04;23.80;99.90
25280;DHT22;13225;47.804;12.116;2023-07-20T10:56:57;23.80;99.90
25280;DHT22;13225;47.804;12.116;2023-07-20T11:01:48;24.30;99.90
25280;DHT22;13225;47.804;12.116;2023-07-20T11:04:15;24.50;99.90
25280;DHT22;13225;47.804;12.116;2023-07-20T11:06:46;24.30;99.90
25280;DHT22;13225;47.804;12.116;2023-07-20T11:09:13;24.40;99.90
25280;DHT22;13225;47.804;12.116;2023-07-20T11:11:48;24.40;99.90
25280;DHT22;13225;47.804;12.116;2023-07-20T11:14:24;24.50;99.90
25280;DHT22;13225;47.804;12.116;2023-07-20T11:16:51;24.50;99.90
25280;DHT22;13225;47.804;12.116;2023-07-20T11:19:25;24.50;99.90
25280;DHT22;13225;47.804;12.116;2023-07-20T11:21:55;24.50;99.90
25280;DHT22;13225;47.804;12.116;2023-07-20T11:24:22;25.00;99.90
25280;DHT22;13225;47.804;12.116;2023-07-20T11:26:49;25.30;99.90
25280;DHT22;13225;47.804;12.116;2023-07-20T11:29:22;25.40;99.90
25280;DHT22;13225;47.804;12.116;2023-07-20T11:31:49;25.40;99.90
25280;DHT22;13225;47.804;12.116;2023-07-20T11:34:15;25.30;99.90
25280;DHT22;13225;47.804;12.116;2023-07-20T11:36:43;24.70;99.90
25280;DHT22;13225;47.804;12.116;2023-07-20T11:39:10;24.90;99.90
25280;DHT22;13225;47.804;12.116;2023-07-20T11:41:36;25.00;99.90
25280;DHT22;13225;47.804;12.116;2023-07-20T11:44:03;24.70;99.90
25280;DHT22;13225;47.804;12.116;2023-07-20T11:46:29;24.90;99.90
25280;DHT22;13225;47.804;12.116;2023-07-20T11:48:58;25.10;99.90
25280;DHT22;13225;47.804;12.116;2023-07-20T11:51:30;25.30;99.90
25280;DHT22;13225;47.804;12.116;2023-07-20T11:53:56;25.80;99.90
25280;DHT22;13225;47.804;12.116;2023-07-20T11:56:23;26.50;99.90
25280;DHT22;13225;47.804;12.116;2023-07-20T11:58:49;26.60;99.90
25280;DHT22;13225;47.804;12.116;2023-07-20T12:01:17;26.90;99.90
25280;DHT22;13225;47.804;12.116;2023-07-20T12:03:43;26.70;99.90
25280;DHT22;13225;47.804;12.116;2023-07-20T12:06:10;26.40;99.90
25280;DHT22;13225;47.804;12.116;2023-07-20T12:08:39;26.00;99.90
25280;DHT22;13225;47.804;12.116;2023-07-20T12:11:05;25.80;99.90
25280;DHT22;13225;47.804;12.116;2023-07-20T12:13:38;26.00;99.90
25280;DHT22;13225;47.804;12.116;2023-07-20T12:16:14;26.40;99.90
25280;DHT22;13225;47.804;12.116;2023-07-20T12:18:42;27.00;99.90
25280;DHT22;13225;47.804;12.116;2023-07-20T12:21:08;26.90;99.90
25280;DHT22;13225;47.804;12.116;2023-07-20T12:23:38;26.10;99.90
25280;DHT22;13225;47.804;12.116;2023-07-20T12:26:10;25.50;99.90
25280;DHT22;13225;47.804;12.116;2023-07-20T12:28:40;25.70;99.90
25280;DHT22;13225;47.804;12.116;2023-07-20T12:31:09;25.80;99.90
25280;DHT22;13225;47.804;12.116;2023-07-20T12:33:37;26.00;99.90
25280;DHT22;13225;47.804;12.116;2023-07-20T12:36:04;26.30;99.90
25280;DHT22;13225;47.804;12.116;2023-07-20T12:38:30;26.60;99.90
25280;DHT22;13225;47.804;12.116;2023-07-20T12:40:56;26.80;99.90
25280;DHT22;13225;47.804;12.116;2023-07-20T12:43:22;26.80;99.90
25280;DHT22;13225;47.804;12.116;2023-07-20T12:45:48;26.50;99.90
25280;DHT22;13225;47.804;12.116;2023-07-20T12:48:13;26.50;99.90
25280;DHT22;13225;47.804;12.116;2023-07-20T12:50:39;26.80;99.90
25280;DHT22;13225;47.804;12.116;2023-07-20T12:53:05;27.30;99.90
25280;DHT22;13225;47.804;12.116;2023-07-20T12:55:30;27.50;99.90
25280;DHT22;13225;47.804;12.116;2023-07-20T12:57:56;28.70;99.90
25280;DHT22;13225;47.804;12.116;2023-07-20T13:00:22;28.60;99.90
25280;DHT22;13225;47.804;12.116;2023-07-20T13:02:51;28.00;99.90
25280;DHT22;13225;47.804;12.116;2023-07-20T13:05:16;27.50;99.90
25280;DHT22;13225;47.804;12.116;2023-07-20T13:07:42;27.10;99.90
25280;DHT22;13225;47.804;12.116;2023-07-20T13:10:09;27.30;99.90
25280;DHT22;13225;47.804;12.116;2023-07-20T13:12:36;26.90;99.90
25280;DHT22;13225;47.804;12.116;2023-07-20T13:15:03;26.10;99.90
25280;DHT22;13225;47.804;12.116;2023-07-20T13:17:32;25.90;99.90
25280;DHT22;13225;47.804;12.116;2023-07-20T13:19:58;25.70;99.90
25280;DHT22;13225;47.804;12.116;2023-07-20T13:22:24;25.70;99.90
25280;DHT22;13225;47.804;12.116;2023-07-20T13:24:50;26.20;99.90
25280;DHT22;13225;47.804;12.116;2023-07-20T13:27:19;25.50;99.90
25280;DHT22;13225;47.804;12.116;2023-07-20T13:29:45;25.80;99.90
25280;DHT22;13225;47.804;12.116;2023-07-20T13:32:13;26.10;99.90
25280;DHT22;13225;47.804;12.116;2023-07-20T13:34:40;26.70;99.90
25280;DHT22;13225;47.804;12.116;2023-07-20T13:37:05;27.70;99.90
25280;DHT22;13225;47.804;12.116;2023-07-20T13:39:31;28.40;99.90
25280;DHT22;13225;47.804;12.116;2023-07-20T13:41:57;28.40;99.90
25280;DHT22;13225;47.804;12.116;2023-07-20T13:44:23;28.30;99.90
25280;DHT22;13225;47.804;12.116;2023-07-20T13:46:49;27.70;99.90
25280;DHT22;13225;47.804;12.116;2023-07-20T13:49:14;27.00;99.90
25280;DHT22;13225;47.804;12.116;2023-07-20T13:51:41;26.80;99.90
25280;DHT22;13225;47.804;12.116;2023-07-20T13:54:08;26.60;99.90
25280;DHT22;13225;47.804;12.116;2023-07-20T13:56:34;26.30;99.90
25280;DHT22;13225;47.804;12.116;2023-07-20T13:59:00;26.10;99.90
25280;DHT22;13225;47.804;12.116;2023-07-20T14:01:26;26.00;99.90
25280;DHT22;13225;47.804;12.116;2023-07-20T14:03:53;25.80;99.90
25280;DHT22;13225;47.804;12.116;2023-07-20T14:06:19;25.70;99.90
25280;DHT22;13225;47.804;12.116;2023-07-20T14:08:45;25.80;99.90
25280;DHT22;13225;47.804;12.116;2023-07-20T14:11:15;25.70;99.90
25280;DHT22;13225;47.804;12.116;2023-07-20T14:13:40;25.70;99.90
25280;DHT22;13225;47.804;12.116;2023-07-20T14:16:06;25.80;99.90
25280;DHT22;13225;47.804;12.116;2023-07-20T14:18:33;26.00;99.90
25280;DHT22;13225;47.804;12.116;2023-07-20T14:20:58;26.20;99.90
25280;DHT22;13225;47.804;12.116;2023-07-20T14:23:24;26.30;99.90
25280;DHT22;13225;47.804;12.116;2023-07-20T14:25:50;26.50;99.90
25280;DHT22;13225;47.804;12.116;2023-07-20T14:28:15;26.80;99.90
25280;DHT22;13225;47.804;12.116;2023-07-20T14:30:42;26.70;99.90
25280;DHT22;13225;47.804;12.116;2023-07-20T14:33:07;26.80;99.90
25280;DHT22;13225;47.804;12.116;2023-07-20T14:35:34;26.60;99.90
25280;DHT22;13225;47.804;12.116;2023-07-20T14:38:00;26.40;99.90
25280;DHT22;13225;47.804;12.116;2023-07-20T14:40:26;27.30;99.90
25280;DHT22;13225;47.804;12.116;2023-07-20T14:42:51;28.40;99.90
25280;DHT22;13225;47.804;12.116;2023-07-20T14:45:18;28.90;99.60
25280;DHT22;13225;47.804;12.116;2023-07-20T14:47:43;29.10;99.90
25280;DHT22;13225;47.804;12.116;2023-07-20T14:50:10;30.10;97.70
25280;DHT22;13225;47.804;12.116;2023-07-20T14:52:36;31.10;96.50
25280;DHT22;13225;47.804;12.116;2023-07-20T14:55:02;31.40;96.90
25280;DHT22;13225;47.804;12.116;2023-07-20T14:57:27;30.90;95.70
25280;DHT22;13225;47.804;12.116;2023-07-20T14:59:53;31.00;95.70
25280;DHT22;13225;47.804;12.116;2023-07-20T15:02:19;31.60;94.00
25280;DHT22;13225;47.804;12.116;2023-07-20T15:04:48;31.70;93.00
25280;DHT22;13225;47.804;12.116;2023-07-20T15:07:17;31.60;94.00
25280;DHT22;13225;47.804;12.116;2023-07-20T15:09:44;31.80;93.50
25280;DHT22;13225;47.804;12.116;2023-07-20T15:12:10;31.00;94.00
25280;DHT22;13225;47.804;12.116;2023-07-20T15:14:35;29.40;96.80
25280;DHT22;13225;47.804;12.116;2023-07-20T15:17:01;29.20;95.90
25280;DHT22;13225;47.804;12.116;2023-07-20T15:19:28;29.90;94.30
25280;DHT22;13225;47.804;12.116;2023-07-20T15:21:54;29.10;95.40
25280;DHT22;13225;47.804;12.116;2023-07-20T15:24:19;28.70;99.10